| time (UTC) | temp C | wind direction | speed KPH | gust KPH | rain 1hr cm | rain 24hr cm | rain mn cm | humidity % | barometer mb |
| 20260503060328 | 4 | 248 | 3.2 | 6.4 | 0.00 | 0.00 | 0.00 | 64 | 1015.9 |
| 20260503054815 | 4 | 307 | 3.2 | 14.5 | 0.00 | 0.00 | 0.00 | 63 | 1016.0 |
| 20260503054600 | 4 | 232 | 4.8 | 8.0 | 0.00 | 0.00 | 0.00 | 63 | 1016.4 |
| 20260503054311 | 4 | 226 | 1.6 | 6.4 | 0.00 | 0.00 | 0.00 | 64 | 1015.9 |
| 20260503053753 | 4 | 213 | 1.6 | 4.8 | 0.00 | 0.00 | 0.00 | 63 | 1016.0 |
| 20260503053239 | 4 | 282 | 1.6 | 8.0 | 0.00 | 0.00 | 0.00 | 63 | 1015.9 |
| 20260503053011 | 4 | 282 | 0.0 | 8.0 | 0.00 | 0.00 | 0.00 | 63 | 1016.4 |
| 20260503052730 | 4 | 282 | 1.6 | 8.0 | 0.00 | 0.00 | 0.00 | 63 | 1015.9 |
| 20260503052224 | 5 | 222 | 1.6 | 6.4 | 0.00 | 0.00 | 0.00 | 63 | 1015.8 |
| 20260503051715 | 5 | 254 | 3.2 | 9.7 | 0.00 | 0.00 | 0.00 | 62 | 1015.9 |
| 20260503051554 | 5 | 252 | 1.6 | 9.7 | 0.00 | 0.00 | 0.00 | 62 | 1016.3 |
| 20260503051208 | 5 | 252 | 3.2 | 9.7 | 0.00 | 0.00 | 0.00 | 62 | 1015.8 |
| 20260503050655 | 4 | 226 | 1.6 | 9.7 | 0.00 | 0.00 | 0.00 | 63 | 1015.8 |
| 20260503050156 | 4 | 221 | 1.6 | 9.7 | 0.00 | 0.00 | 0.00 | 64 | 1015.8 |
| 20260503050038 | 4 | 221 | 0.0 | 9.7 | 0.00 | 0.00 | 0.00 | 64 | 1016.3 |
| 20260503045654 | 4 | 355 | 1.6 | 9.7 | 0.00 | 0.00 | 0.00 | 64 | 1015.8 |
| 20260503045152 | 4 | 273 | 1.6 | 8.0 | 0.00 | 0.00 | 0.00 | 64 | 1015.8 |
| 20260503044647 | 5 | 264 | 1.6 | 8.0 | 0.00 | 0.00 | 0.00 | 62 | 1015.7 |
| 20260503044526 | 5 | 264 | 3.2 | 8.0 | 0.00 | 0.00 | 0.00 | 62 | 1016.2 |
| 20260503044146 | 5 | 261 | 0.0 | 8.0 | 0.00 | 0.00 | 0.00 | 62 | 1015.7 |
| 20260503043635 | 5 | 261 | 1.6 | 8.0 | 0.00 | 0.00 | 0.00 | 62 | 1015.5 |
| 20260503043130 | 5 | 261 | 3.2 | 12.9 | 0.00 | 0.00 | 0.00 | 62 | 1015.5 |
| 20260503043007 | 5 | 234 | 3.2 | 12.9 | 0.00 | 0.00 | 0.00 | 62 | 1016.0 |
| 20260503042858 | 5 | 250 | 1.6 | 12.9 | 0.00 | 0.00 | 0.00 | 62 | 1015.5 |
| 20260503042121 | 5 | 271 | 1.6 | 4.8 | 0.00 | 0.00 | 0.00 | 63 | 1015.5 |
| 20260503041611 | 5 | 297 | 1.6 | 4.8 | 0.00 | 0.00 | 0.00 | 61 | 1015.4 |
| 20260503041551 | 5 | 297 | 0.0 | 4.8 | 0.00 | 0.00 | 0.00 | 62 | 1015.9 |
| 20260503041105 | 5 | 236 | 1.6 | 4.8 | 0.00 | 0.00 | 0.00 | 62 | 1015.4 |
| 20260503040554 | 5 | 236 | 1.6 | 4.8 | 0.00 | 0.00 | 0.00 | 60 | 1015.4 |
| 20260503040319 | 5 | 348 | 1.6 | 4.8 | 0.00 | 0.00 | 0.00 | 61 | 1015.4 |
| 20260503040025 | 5 | 348 | 0.0 | 4.8 | 0.00 | 0.00 | 0.00 | 61 | 1015.8 |
| 20260503035534 | 5 | 309 | 1.6 | 4.8 | 0.00 | 0.00 | 0.00 | 60 | 1015.3 |
| 20260503035026 | 5 | 240 | 1.6 | 4.8 | 0.00 | 0.00 | 0.00 | 61 | 1015.2 |
| 20260503034745 | 5 | 244 | 1.6 | 11.3 | 0.00 | 0.00 | 0.00 | 61 | 1015.4 |
| 20260503034557 | 5 | 238 | 1.6 | 9.7 | 0.00 | 0.00 | 0.00 | 61 | 1015.7 |
| 20260503034005 | 5 | 316 | 1.6 | 11.3 | 0.00 | 0.00 | 0.00 | 61 | 1015.2 |
| 20260503033450 | 5 | 248 | 1.6 | 4.8 | 0.00 | 0.00 | 0.00 | 61 | 1015.3 |
| 20260503033020 | 5 | 173 | 0.0 | 4.8 | 0.00 | 0.00 | 0.00 | 61 | 1015.6 |
| 20260503032941 | 5 | 166 | 1.6 | 4.8 | 0.00 | 0.00 | 0.00 | 61 | 1015.4 |
| 20260503032701 | 5 | 240 | 0.0 | 4.8 | 0.00 | 0.00 | 0.00 | 61 | 1015.3 |
| 20260503031922 | 5 | 209 | 0.0 | 4.8 | 0.00 | 0.00 | 0.00 | 62 | 1015.2 |
| 20260503031552 | 5 | 203 | 0.0 | 4.8 | 0.00 | 0.00 | 0.00 | 62 | 1015.6 |
| 20260503031411 | 5 | 203 | 1.6 | 6.4 | 0.00 | 0.00 | 0.00 | 62 | 1015.2 |
| 20260503030901 | 5 | 315 | 0.0 | 6.4 | 0.00 | 0.00 | 0.00 | 63 | 1015.1 |
| 20260503030347 | 5 | 249 | 0.0 | 4.8 | 0.00 | 0.00 | 0.00 | 62 | 1015.2 |
| 20260503030024 | 5 | 249 | 0.0 | 4.8 | 0.00 | 0.00 | 0.00 | 62 | 1015.6 |
| 20260503025838 | 5 | 249 | 1.6 | 9.7 | 0.00 | 0.00 | 0.00 | 62 | 1015.2 |
| 20260503025557 | 5 | 246 | 1.6 | 9.7 | 0.00 | 0.00 | 0.00 | 63 | 1015.2 |
| 20260503024818 | 5 | 227 | 0.0 | 4.8 | 0.00 | 0.00 | 0.00 | 63 | 1015.1 |
| 20260503024551 | 5 | 227 | 1.6 | 4.8 | 0.00 | 0.00 | 0.00 | 63 | 1015.4 |
| 20260503024307 | 5 | 221 | 0.0 | 3.2 | 0.00 | 0.00 | 0.00 | 63 | 1015.1 |
| 20260503024026 | 5 | 221 | 0.0 | 3.2 | 0.00 | 0.00 | 0.00 | 63 | 1015.2 |
| 20260503023235 | 5 | 224 | 0.0 | 3.2 | 0.00 | 0.00 | 0.00 | 64 | 1015.0 |
| 20260503023007 | 5 | 276 | 0.0 | 3.2 | 0.00 | 0.00 | 0.00 | 64 | 1015.4 |
| 20260503022726 | 5 | 239 | 0.0 | 3.2 | 0.00 | 0.00 | 0.00 | 64 | 1015.1 |
| 20260503022216 | 5 | 239 | 0.0 | 3.2 | 0.00 | 0.00 | 0.00 | 62 | 1014.9 |
| 20260503021704 | 5 | 239 | 0.0 | 3.2 | 0.00 | 0.00 | 0.00 | 63 | 1014.9 |
| 20260503021657 | 5 | 340 | 1.6 | 9.7 | 0.00 | 0.00 | 0.00 | 62 | 1015.0 |
| 20260503021540 | 5 | 239 | 0.0 | 3.2 | 0.00 | 0.00 | 0.00 | 63 | 1015.2 |
| 20260503020637 | 5 | 340 | 1.6 | 9.7 | 0.00 | 0.00 | 0.00 | 62 | 1015.0 |
| 20260503020121 | 5 | 304 | 1.6 | 4.8 | 0.00 | 0.00 | 0.00 | 61 | 1015.0 |
| 20260503015843 | 6 | 251 | 0.0 | 1.6 | 0.00 | 0.00 | 0.00 | 61 | 1015.0 |
| 20260503015331 | 6 | 251 | 1.6 | 3.2 | 0.00 | 0.00 | 0.00 | 59 | 1014.9 |
| 20260503014550 | 6 | 251 | 1.6 | 3.2 | 0.00 | 0.00 | 0.00 | 58 | 1014.9 |
| 20260503014527 | 6 | 251 | 0.0 | 3.2 | 0.00 | 0.00 | 0.00 | 58 | 1015.2 |
| 20260503014312 | 6 | 331 | 1.6 | 9.7 | 0.00 | 0.00 | 0.00 | 58 | 1015.0 |
| 20260503013530 | 6 | 333 | 1.6 | 9.7 | 0.00 | 0.00 | 0.00 | 57 | 1014.9 |
| 20260503013056 | 6 | 248 | 1.6 | 4.8 | 0.00 | 0.00 | 0.00 | 58 | 1015.0 |
| 20260503013016 | 6 | 245 | 1.6 | 4.8 | 0.00 | 0.00 | 0.00 | 57 | 1014.9 |
| 20260503012506 | 6 | 271 | 1.6 | 6.4 | 0.00 | 0.00 | 0.00 | 57 | 1014.8 |
| 20260503011957 | 6 | 267 | 1.6 | 6.4 | 0.00 | 0.00 | 0.00 | 57 | 1014.7 |
| 20260503011526 | 6 | 234 | 1.6 | 6.4 | 0.00 | 0.00 | 0.00 | 58 | 1014.9 |
| 20260503011446 | 6 | 234 | 1.6 | 6.4 | 0.00 | 0.00 | 0.00 | 58 | 1014.7 |
| 20260503010936 | 6 | 295 | 1.6 | 4.8 | 0.00 | 0.00 | 0.00 | 58 | 1014.6 |
| 20260503010426 | 6 | 317 | 1.6 | 6.4 | 0.00 | 0.00 | 0.00 | 58 | 1014.5 |
| 20260503010055 | 6 | 317 | 1.6 | 8.0 | 0.00 | 0.00 | 0.00 | 58 | 1014.7 |
| 20260503005913 | 6 | 273 | 1.6 | 8.0 | 0.00 | 0.00 | 0.00 | 58 | 1014.4 |
| 20260503005402 | 6 | 246 | 1.6 | 12.9 | 0.00 | 0.00 | 0.00 | 58 | 1014.4 |
| 20260503004852 | 6 | 255 | 1.6 | 12.9 | 0.00 | 0.00 | 0.00 | 57 | 1014.4 |
| 20260503004521 | 6 | 200 | 0.0 | 1.6 | 0.00 | 0.00 | 0.00 | 56 | 1014.6 |
| 20260503004340 | 7 | 200 | 0.0 | 1.6 | 0.00 | 0.00 | 0.00 | 56 | 1014.4 |
| 20260503003830 | 7 | 200 | 0.0 | 3.2 | 0.00 | 0.00 | 0.00 | 54 | 1014.3 |
| 20260503003321 | 7 | 252 | 0.0 | 9.7 | 0.00 | 0.00 | 0.00 | 53 | 1014.3 |
| 20260503003102 | 7 | 252 | 0.0 | 1.6 | 0.00 | 0.00 | 0.00 | 52 | 1014.4 |
| 20260503002819 | 7 | 279 | 1.6 | 9.7 | 0.00 | 0.00 | 0.00 | 52 | 1014.3 |
| 20260503002301 | 7 | 279 | 3.2 | 12.9 | 0.00 | 0.00 | 0.00 | 51 | 1014.2 |
| 20260503001751 | 8 | 300 | 3.2 | 12.9 | 0.00 | 0.00 | 0.00 | 51 | 1014.0 |
| 20260503001524 | 8 | 343 | 3.2 | 12.9 | 0.00 | 0.00 | 0.00 | 50 | 1014.1 |
| 20260503001512 | 8 | 283 | 0.0 | 4.8 | 0.00 | 0.00 | 0.00 | 50 | 1014.0 |
| 20260503001003 | 8 | 315 | 1.6 | 4.8 | 0.00 | 0.00 | 0.00 | 50 | 1014.0 |
| 20260503000221 | 8 | 320 | 1.6 | 4.8 | 0.00 | 0.00 | 0.00 | 49 | 1013.8 |
| 20260503000058 | 8 | 320 | 0.0 | 4.8 | 0.00 | 0.00 | 0.00 | 49 | 1013.9 |
| 20260502235707 | 8 | 326 | 1.6 | 8.0 | 0.00 | 0.00 | 0.00 | 49 | 1013.9 |
| 20260502235156 | 8 | 277 | 1.6 | 8.0 | 0.00 | 0.00 | 0.00 | 50 | 1013.9 |
| 20260502234647 | 8 | 326 | 3.2 | 11.3 | 0.00 | 0.00 | 0.00 | 49 | 1013.8 |
| 20260502234526 | 8 | 326 | 0.0 | 11.3 | 0.00 | 0.00 | 0.00 | 48 | 1013.9 |
| 20260502234136 | 8 | 325 | 3.2 | 11.3 | 0.00 | 0.00 | 0.00 | 48 | 1013.8 |
| 20260502233900 | 9 | 292 | 3.2 | 12.9 | 0.00 | 0.00 | 0.00 | 50 | 1013.8 |
| 20260502233116 | 9 | 327 | 1.6 | 6.4 | 0.00 | 0.00 | 0.00 | 50 | 1013.7 |
| 20260502233057 | 9 | 339 | 1.6 | 12.9 | 0.00 | 0.00 | 0.00 | 50 | 1013.8 |
| 20260502232602 | 9 | 212 | 3.2 | 16.1 | 0.00 | 0.00 | 0.00 | 50 | 1013.7 |
| 20260502232053 | 9 | 324 | 4.8 | 16.1 | 0.00 | 0.00 | 0.00 | 48 | 1013.8 |
| 20260502231543 | 9 | 321 | 6.4 | 17.7 | 0.00 | 0.00 | 0.00 | 48 | 1013.7 |
| 20260502231525 | 9 | 326 | 4.8 | 17.7 | 0.00 | 0.00 | 0.00 | 48 | 1013.7 |
| 20260502231033 | 9 | 309 | 4.8 | 17.7 | 0.00 | 0.00 | 0.00 | 48 | 1013.8 |
| 20260502230523 | 9 | 279 | 4.8 | 12.9 | 0.00 | 0.00 | 0.00 | 48 | 1013.7 |
| 20260502230058 | 10 | 331 | 3.2 | 12.9 | 0.00 | 0.00 | 0.00 | 48 | 1013.7 |
| 20260502230012 | 10 | 278 | 6.4 | 16.1 | 0.00 | 0.00 | 0.00 | 48 | 1013.6 |
| 20260502225459 | 10 | 293 | 6.4 | 19.3 | 0.00 | 0.00 | 0.00 | 49 | 1013.6 |
| 20260502225220 | 10 | 355 | 4.8 | 19.3 | 0.00 | 0.00 | 0.00 | 46 | 1013.7 |
| 20260502224517 | 10 | 296 | 4.8 | 22.5 | 0.00 | 0.00 | 0.00 | 45 | 1013.7 |
| 20260502224438 | 10 | 269 | 6.4 | 22.5 | 0.00 | 0.00 | 0.00 | 46 | 1013.6 |
| 20260502223928 | 10 | 320 | 6.4 | 22.5 | 0.00 | 0.00 | 0.00 | 46 | 1013.6 |
| 20260502223419 | 10 | 333 | 6.4 | 17.7 | 0.00 | 0.00 | 0.00 | 46 | 1013.4 |
| 20260502223059 | 10 | 332 | 4.8 | 17.7 | 0.00 | 0.00 | 0.00 | 45 | 1013.4 |
| 20260502222907 | 10 | 317 | 8.0 | 14.5 | 0.00 | 0.00 | 0.00 | 45 | 1013.3 |
| 20260502222354 | 10 | 321 | 8.0 | 19.3 | 0.00 | 0.00 | 0.00 | 44 | 1013.3 |
| 20260502221845 | 10 | 306 | 4.8 | 17.7 | 0.00 | 0.00 | 0.00 | 43 | 1013.2 |
| 20260502221518 | 10 | 253 | 4.8 | 12.9 | 0.00 | 0.00 | 0.00 | 43 | 1012.9 |
| 20260502221339 | 10 | 314 | 3.2 | 11.3 | 0.00 | 0.00 | 0.00 | 43 | 1013.1 |
| 20260502220829 | 10 | 288 | 3.2 | 16.1 | 0.00 | 0.00 | 0.00 | 42 | 1013.1 |
| 20260502220319 | 10 | 330 | 3.2 | 19.3 | 0.00 | 0.00 | 0.00 | 44 | 1013.0 |
| 20260502220101 | 10 | 290 | 1.6 | 9.7 | 0.00 | 0.00 | 0.00 | 45 | 1012.7 |
| 20260502215810 | 10 | 315 | 4.8 | 19.3 | 0.00 | 0.00 | 0.00 | 44 | 1013.0 |
| 20260502215300 | 10 | 309 | 6.4 | 22.5 | 0.00 | 0.00 | 0.00 | 43 | 1012.8 |
| 20260502215022 | 11 | 292 | 4.8 | 22.5 | 0.00 | 0.00 | 0.00 | 42 | 1012.8 |
| 20260502214523 | 11 | 257 | 1.6 | 16.1 | 0.00 | 0.00 | 0.00 | 41 | 1012.6 |
| 20260502214240 | 11 | 234 | 4.8 | 16.1 | 0.00 | 0.00 | 0.00 | 41 | 1012.8 |
| 20260502213739 | 11 | 263 | 6.4 | 19.3 | 0.00 | 0.00 | 0.00 | 43 | 1012.7 |
| 20260502213233 | 11 | 271 | 8.0 | 19.3 | 0.00 | 0.00 | 0.00 | 47 | 1012.7 |
| 20260502213014 | 11 | 315 | 8.0 | 20.9 | 0.00 | 0.00 | 0.00 | 44 | 1012.4 |
| 20260502212726 | 11 | 355 | 8.0 | 20.9 | 0.00 | 0.00 | 0.00 | 44 | 1012.7 |
| 20260502212218 | 10 | 344 | 6.4 | 20.9 | 0.00 | 0.00 | 0.00 | 44 | 1012.8 |
| 20260502211713 | 10 | 298 | 6.4 | 19.3 | 0.00 | 0.00 | 0.00 | 42 | 1012.8 |
| 20260502211553 | 10 | 292 | 4.8 | 17.7 | 0.00 | 0.00 | 0.00 | 43 | 1012.4 |
| 20260502211440 | 11 | 323 | 6.4 | 24.1 | 0.00 | 0.00 | 0.00 | 43 | 1012.7 |
| 20260502210658 | 10 | 338 | 8.0 | 24.1 | 0.00 | 0.00 | 0.00 | 43 | 1012.4 |
| 20260502210157 | 10 | 340 | 6.4 | 20.9 | 0.00 | 0.00 | 0.00 | 43 | 1012.7 |
| 20260502210049 | 10 | 329 | 6.4 | 20.9 | 0.00 | 0.00 | 0.00 | 43 | 1012.3 |
| 20260502205651 | 11 | 355 | 8.0 | 24.1 | 0.00 | 0.00 | 0.00 | 43 | 1012.7 |
| 20260502205137 | 11 | 264 | 9.7 | 24.1 | 0.00 | 0.00 | 0.00 | 42 | 1012.6 |
| 20260502204632 | 11 | 268 | 8.0 | 25.7 | 0.00 | 0.00 | 0.00 | 44 | 1012.6 |
| 20260502204508 | 11 | 319 | 6.4 | 25.7 | 0.00 | 0.00 | 0.00 | 44 | 1012.3 |
| 20260502204124 | 11 | 340 | 6.4 | 25.7 | 0.00 | 0.00 | 0.00 | 42 | 1012.7 |
| 20260502203618 | 11 | 291 | 4.8 | 14.5 | 0.00 | 0.00 | 0.00 | 42 | 1012.6 |
| 20260502203118 | 11 | 248 | 1.6 | 16.1 | 0.00 | 0.00 | 0.00 | 42 | 1012.3 |
| 20260502203110 | 11 | 290 | 4.8 | 16.1 | 0.00 | 0.00 | 0.00 | 42 | 1012.6 |
| 20260502202606 | 11 | 325 | 3.2 | 20.9 | 0.00 | 0.00 | 0.00 | 41 | 1012.7 |
| 20260502202051 | 12 | 302 | 4.8 | 20.9 | 0.00 | 0.00 | 0.00 | 41 | 1012.6 |
| 20260502201542 | 12 | 300 | 6.4 | 24.1 | 0.00 | 0.00 | 0.00 | 42 | 1012.4 |
| 20260502201533 | 12 | 300 | 4.8 | 24.1 | 0.00 | 0.00 | 0.00 | 42 | 1012.2 |
| 20260502201035 | 12 | 332 | 4.8 | 24.1 | 0.00 | 0.00 | 0.00 | 43 | 1012.7 |
| 20260502200529 | 12 | 254 | 3.2 | 20.9 | 0.00 | 0.00 | 0.00 | 42 | 1012.7 |
| 20260502200122 | 12 | 192 | 3.2 | 16.1 | 0.00 | 0.00 | 0.00 | 42 | 1012.3 |
| 20260502200031 | 12 | 290 | 6.4 | 16.1 | 0.00 | 0.00 | 0.00 | 41 | 1012.7 |
| 20260502195514 | 12 | 327 | 8.0 | 24.1 | 0.00 | 0.00 | 0.00 | 44 | 1012.7 |
| 20260502195004 | 11 | 327 | 8.0 | 24.1 | 0.00 | 0.00 | 0.00 | 43 | 1012.7 |
| 20260502194535 | 11 | 5 | 8.0 | 22.5 | 0.00 | 0.00 | 0.00 | 40 | 1012.3 |
| 20260502194454 | 11 | 280 | 8.0 | 22.5 | 0.00 | 0.00 | 0.00 | 41 | 1012.8 |
| 20260502194217 | 11 | 333 | 8.0 | 25.7 | 0.00 | 0.00 | 0.00 | 40 | 1012.8 |
| 20260502193436 | 11 | 324 | 9.7 | 25.7 | 0.00 | 0.00 | 0.00 | 41 | 1012.8 |
| 20260502193006 | 11 | 333 | 11.3 | 25.7 | 0.00 | 0.00 | 0.00 | 42 | 1012.3 |
| 20260502192926 | 11 | 332 | 8.0 | 24.1 | 0.00 | 0.00 | 0.00 | 40 | 1012.8 |
| 20260502192918 | 11 | 342 | 8.0 | 24.1 | 0.00 | 0.00 | 0.00 | 39 | 1012.7 |
| 20260502192132 | 12 | 13 | 6.4 | 24.1 | 0.00 | 0.00 | 0.00 | 40 | 1012.7 |
| 20260502191621 | 12 | 254 | 6.4 | 24.1 | 0.00 | 0.00 | 0.00 | 41 | 1012.4 |
| 20260502191537 | 12 | 303 | 9.7 | 22.5 | 0.00 | 0.00 | 0.00 | 39 | 1012.2 |
| 20260502190841 | 12 | 286 | 11.3 | 25.7 | 0.00 | 0.00 | 0.00 | 39 | 1012.7 |
| 20260502190332 | 12 | 5 | 9.7 | 25.7 | 0.00 | 0.00 | 0.00 | 38 | 1012.6 |
| 20260502190057 | 12 | 325 | 14.5 | 25.7 | 0.00 | 0.00 | 0.00 | 38 | 1012.1 |
| 20260502190045 | 12 | 320 | 6.4 | 25.7 | 0.00 | 0.00 | 0.00 | 41 | 1012.4 |
| 20260502185305 | 12 | 329 | 8.0 | 25.7 | 0.00 | 0.00 | 0.00 | 37 | 1012.4 |
| 20260502184750 | 12 | 15 | 4.8 | 20.9 | 0.00 | 0.00 | 0.00 | 36 | 1012.3 |
| 20260502184523 | 12 | 275 | 3.2 | 14.5 | 0.00 | 0.00 | 0.00 | 39 | 1012.0 |
| 20260502184242 | 12 | 280 | 6.4 | 20.9 | 0.00 | 0.00 | 0.00 | 41 | 1012.4 |
| 20260502183732 | 12 | 252 | 6.4 | 20.9 | 0.00 | 0.00 | 0.00 | 39 | 1012.3 |
| 20260502183453 | 12 | 287 | 8.0 | 19.3 | 0.00 | 0.00 | 0.00 | 36 | 1012.4 |
| 20260502183059 | 13 | 257 | 6.4 | 17.7 | 0.00 | 0.00 | 0.00 | 39 | 1012.1 |
| 20260502182943 | 13 | 300 | 8.0 | 19.3 | 0.00 | 0.00 | 0.00 | 40 | 1012.6 |
| 20260502182201 | 12 | 21 | 6.4 | 19.3 | 0.00 | 0.00 | 0.00 | 41 | 1012.6 |
| 20260502181640 | 12 | 342 | 6.4 | 17.7 | 0.00 | 0.00 | 0.00 | 39 | 1012.7 |
| 20260502181517 | 12 | 355 | 3.2 | 17.7 | 0.00 | 0.00 | 0.00 | 38 | 1012.3 |
| 20260502181403 | 12 | 227 | 6.4 | 17.7 | 0.00 | 0.00 | 0.00 | 40 | 1012.8 |
| 20260502180623 | 12 | 346 | 8.0 | 25.7 | 0.00 | 0.00 | 0.00 | 39 | 1012.8 |
| 20260502180111 | 12 | 306 | 8.0 | 25.7 | 0.00 | 0.00 | 0.00 | 37 | 1012.7 |
| 20260502170415 | 11 | 188 | 6.4 | 20.9 | 0.00 | 0.00 | 0.00 | 39 | 1013.5 |
| 20260502164330 | 12 | 238 | 4.8 | 12.9 | 0.00 | 0.00 | 0.00 | 42 | 1013.6 |
| 20260502163820 | 12 | 315 | 4.8 | 14.5 | 0.00 | 0.00 | 0.00 | 41 | 1013.5 |
| 20260502163310 | 12 | 292 | 4.8 | 16.1 | 0.00 | 0.00 | 0.00 | 39 | 1013.7 |
| 20260502163043 | 11 | 312 | 4.8 | 16.1 | 0.00 | 0.00 | 0.00 | 41 | 1013.4 |
| 20260502163032 | 12 | 350 | 4.8 | 19.3 | 0.00 | 0.00 | 0.00 | 39 | 1013.8 |
| 20260502162250 | 11 | 272 | 6.4 | 19.3 | 0.00 | 0.00 | 0.00 | 39 | 1013.8 |
| 20260502161739 | 12 | 333 | 4.8 | 14.5 | 0.00 | 0.00 | 0.00 | 42 | 1013.7 |
| 20260502161510 | 11 | 313 | 4.8 | 14.5 | 0.00 | 0.00 | 0.00 | 43 | 1013.4 |
| 20260502161224 | 12 | 269 | 4.8 | 17.7 | 0.00 | 0.00 | 0.00 | 41 | 1013.8 |
| 20260502160714 | 11 | 343 | 6.4 | 17.7 | 0.00 | 0.00 | 0.00 | 44 | 1013.8 |
| 20260502160206 | 11 | 49 | 8.0 | 17.7 | 0.00 | 0.00 | 0.00 | 40 | 1013.9 |
| 20260502152040 | 10 | 297 | 6.4 | 16.1 | 0.00 | 0.00 | 0.00 | 46 | 1014.4 |
| 20260502151529 | 10 | 330 | 6.4 | 17.7 | 0.00 | 0.00 | 0.00 | 44 | 1014.4 |
| 20260502151506 | 10 | 330 | 1.6 | 17.7 | 0.00 | 0.00 | 0.00 | 42 | 1013.9 |
| 20260502151248 | 10 | 283 | 4.8 | 16.1 | 0.00 | 0.00 | 0.00 | 45 | 1014.4 |
| 20260502150505 | 10 | 334 | 6.4 | 16.1 | 0.00 | 0.00 | 0.00 | 44 | 1014.5 |
| 20260502130431 | 7 | 9 | 3.2 | 8.0 | 0.00 | 0.00 | 0.00 | 52 | 1014.7 |
| 20260502123623 | 6 | 323 | 1.6 | 6.4 | 0.00 | 0.00 | 0.00 | 53 | 1014.3 |
| 20260502123117 | 6 | 348 | 4.8 | 17.7 | 0.00 | 0.00 | 0.00 | 52 | 1014.4 |
| 20260502123053 | 6 | 348 | 3.2 | 17.7 | 0.00 | 0.00 | 0.00 | 52 | 1014.0 |
| 20260502122611 | 6 | 0 | 4.8 | 17.7 | 0.00 | 0.00 | 0.00 | 54 | 1014.5 |
| 20260502122104 | 6 | 17 | 4.8 | 8.0 | 0.00 | 0.00 | 0.00 | 54 | 1014.2 |
| 20260502121601 | 6 | 0 | 6.4 | 17.7 | 0.00 | 0.00 | 0.00 | 53 | 1014.2 |
| 20260502121537 | 6 | 360 | 1.6 | 17.7 | 0.00 | 0.00 | 0.00 | 53 | 1013.8 |
| 20260502121325 | 6 | 44 | 4.8 | 17.7 | 0.00 | 0.00 | 0.00 | 52 | 1014.2 |
| 20260502120541 | 6 | 0 | 3.2 | 9.7 | 0.00 | 0.00 | 0.00 | 53 | 1014.0 |
| 20260502115759 | 6 | 343 | 0.0 | 0.0 | 0.00 | 0.00 | 0.00 | 59 | 1014.3 |
| 20260502115016 | 6 | 333 | 0.0 | 0.0 | 0.00 | 0.00 | 0.00 | 58 | 1014.3 |
| 20260502114548 | 6 | 333 | 0.0 | 1.6 | 0.00 | 0.00 | 0.00 | 64 | 1013.9 |
| 20260502114511 | 6 | 333 | 0.0 | 1.6 | 0.00 | 0.00 | 0.00 | 65 | 1014.3 |
| 20260502114004 | 6 | 333 | 1.6 | 6.4 | 0.00 | 0.00 | 0.00 | 60 | 1014.0 |
| 20260502113449 | 5 | 333 | 1.6 | 6.4 | 0.00 | 0.00 | 0.00 | 60 | 1014.0 |
| 20260502113019 | 5 | 318 | 3.2 | 6.4 | 0.00 | 0.00 | 0.00 | 60 | 1013.6 |
| 20260502112941 | 5 | 329 | 0.0 | 6.4 | 0.00 | 0.00 | 0.00 | 64 | 1014.0 |
| 20260502112431 | 5 | 346 | 0.0 | 0.0 | 0.00 | 0.00 | 0.00 | 68 | 1014.0 |
| 20260502111922 | 5 | 346 | 0.0 | 3.2 | 0.00 | 0.00 | 0.00 | 68 | 1014.0 |
| 20260502111555 | 5 | 346 | 0.0 | 3.2 | 0.00 | 0.00 | 0.00 | 67 | 1013.6 |
| 20260502111411 | 5 | 346 | 0.0 | 3.2 | 0.00 | 0.00 | 0.00 | 67 | 1013.9 |
| 20260502111403 | 5 | 346 | 0.0 | 0.0 | 0.00 | 0.00 | 0.00 | 68 | 1013.8 |
| 20260502110338 | 5 | 346 | 0.0 | 0.0 | 0.00 | 0.00 | 0.00 | 69 | 1013.7 |
| 20260502110010 | 5 | 346 | 0.0 | 1.6 | 0.00 | 0.00 | 0.00 | 69 | 1013.2 |
| 20260502105829 | 5 | 346 | 0.0 | 1.6 | 0.00 | 0.00 | 0.00 | 68 | 1013.7 |
| 20260502105324 | 5 | 346 | 0.0 | 1.6 | 0.00 | 0.00 | 0.00 | 66 | 1013.7 |
| 20260502104814 | 6 | 346 | 0.0 | 0.0 | 0.00 | 0.00 | 0.00 | 65 | 1013.8 |
| 20260502104557 | 6 | 346 | 0.0 | 0.0 | 0.00 | 0.00 | 0.00 | 63 | 1013.4 |
| 20260502104304 | 6 | 346 | 0.0 | 0.0 | 0.00 | 0.00 | 0.00 | 62 | 1013.7 |
| 20260502104014 | 6 | 346 | 0.0 | 1.6 | 0.00 | 0.00 | 0.00 | 61 | 1013.8 |
| 20260502103848 | 6 | 346 | 0.0 | 0.0 | 0.00 | 0.00 | 0.00 | 62 | 1013.7 |
| 20260502103016 | 6 | 346 | 0.0 | 4.8 | 0.00 | 0.00 | 0.00 | 62 | 1013.4 |
| 20260502102730 | 6 | 346 | 1.6 | 4.8 | 0.00 | 0.00 | 0.00 | 61 | 1013.7 |
| 20260502102445 | 6 | 348 | 0.0 | 0.0 | 0.00 | 0.00 | 0.00 | 59 | 1013.9 |
| 20260502102319 | 6 | 346 | 0.0 | 4.8 | 0.00 | 0.00 | 0.00 | 56 | 1013.7 |
| 20260502101606 | 6 | 348 | 0.0 | 1.6 | 0.00 | 0.00 | 0.00 | 59 | 1013.4 |
| 20260502101210 | 6 | 348 | 0.0 | 3.2 | 0.00 | 0.00 | 0.00 | 58 | 1013.8 |
| 20260502100932 | 6 | 348 | 0.0 | 3.2 | 0.00 | 0.00 | 0.00 | 59 | 1013.8 |
| 20260502100147 | 6 | 348 | 1.6 | 6.4 | 0.00 | 0.00 | 0.00 | 59 | 1013.9 |
| 20260502090947 | 7 | 27 | 1.6 | 4.8 | 0.00 | 0.00 | 0.00 | 63 | 1014.5 |
| 20260502090436 | 7 | 351 | 3.2 | 4.8 | 0.00 | 0.00 | 0.00 | 63 | 1014.5 |
| 20260502071050 | 8 | 355 | 1.6 | 4.8 | 0.00 | 0.00 | 0.00 | 67 | 1013.6 |
| 20260502070540 | 8 | 355 | 1.6 | 4.8 | 0.00 | 0.00 | 0.00 | 66 | 1013.6 |
| 20260502070028 | 8 | 0 | 1.6 | 4.8 | 0.00 | 0.00 | 0.00 | 65 | 1013.5 |
| 20260502070006 | 8 | 360 | 0.0 | 4.8 | 0.00 | 0.00 | 0.00 | 65 | 1013.2 |
| 20260502065514 | 8 | 31 | 1.6 | 4.8 | 0.00 | 0.00 | 0.00 | 65 | 1013.5 |
| 20260502065008 | 8 | 325 | 3.2 | 6.4 | 0.00 | 0.00 | 0.00 | 65 | 1013.6 |
| 20260502064545 | 8 | 313 | 1.6 | 9.7 | 0.00 | 0.00 | 0.00 | 65 | 1013.5 |
| 20260502064501 | 8 | 316 | 4.8 | 16.1 | 0.00 | 0.00 | 0.00 | 65 | 1013.8 |
| 20260502063950 | 8 | 344 | 4.8 | 16.1 | 0.00 | 0.00 | 0.00 | 64 | 1013.8 |
| 20260502063440 | 9 | 5 | 3.2 | 8.0 | 0.00 | 0.00 | 0.00 | 65 | 1013.8 |